THY188 LTFM-VTSP
Flight info
| Callsign | THY188 |
|---|---|
| Flight time | N/A |
| Altitude | 37000 |
| Route | EKAWE UT643 GAKSU UT310 SIN DCT REBLO DCT PEMAN/N0488F390 N161 EDATA M11 LUSAL N701 BAKUV DCT NAMAS N35 RODAR A909 TUNEK B143 KRS A240 INRAK B449 RANAH L750 ZB G202 RK P628 IBANI L510 GOGVE/N0489F410 L510 GURVI T1 BBS L759 SATVA SATVA1C |
| Aircraft | A359/H-SDE2E3GHIJ3J4J5LM1ORWXY/LB1D1 |
Departure
| Time | N/A |
|---|---|
| Airport | İstanbul Airport (LTFM) |
Arrival
| Time | 2026-05-04 19:39 |
|---|---|
| Airport | Phuket International Airport (VTSP) |
| Time | Latitude | Longitude | Altitude | Speed | Heading |
|---|---|---|---|---|---|
| 2026-05-04 17:34 | 19.16640 | 86.93101 | 40885 ft | 500 kts | 138° |
| 2026-05-04 17:34 | 19.14155 | 86.95667 | 40882 ft | 500 kts | 138° |
| 2026-05-04 17:35 | 19.01709 | 87.08503 | 40880 ft | 499 kts | 138° |
| 2026-05-04 17:36 | 18.96733 | 87.13626 | 40886 ft | 499 kts | 138° |
| 2026-05-04 17:36 | 18.91757 | 87.18745 | 40885 ft | 499 kts | 138° |
| 2026-05-04 17:37 | 18.86781 | 87.23860 | 40889 ft | 499 kts | 138° |
| 2026-05-04 17:37 | 18.81800 | 87.28975 | 40889 ft | 499 kts | 138° |
| 2026-05-04 17:38 | 18.76816 | 87.34089 | 40885 ft | 499 kts | 138° |
| 2026-05-04 17:38 | 18.71839 | 87.39192 | 40887 ft | 499 kts | 138° |
| 2026-05-04 17:39 | 18.64362 | 87.46849 | 40890 ft | 499 kts | 138° |
| 2026-05-04 17:39 | 18.59377 | 87.51949 | 40889 ft | 499 kts | 138° |
| 2026-05-04 17:40 | 18.54390 | 87.57045 | 40888 ft | 499 kts | 138° |
| 2026-05-04 17:40 | 18.49405 | 87.62136 | 40888 ft | 499 kts | 138° |
| 2026-05-04 17:41 | 18.44415 | 87.67228 | 40890 ft | 499 kts | 138° |
| 2026-05-04 17:41 | 18.39426 | 87.72314 | 40888 ft | 499 kts | 138° |
| 2026-05-04 17:42 | 18.34448 | 87.77384 | 40886 ft | 498 kts | 138° |
| 2026-05-04 17:42 | 18.29497 | 87.82424 | 40886 ft | 498 kts | 138° |
| 2026-05-04 17:43 | 18.24505 | 87.87544 | 40892 ft | 498 kts | 137° |
| 2026-05-04 17:43 | 18.19609 | 87.92638 | 40892 ft | 498 kts | 137° |
| 2026-05-04 17:44 | 18.14681 | 87.97763 | 40891 ft | 498 kts | 137° |
| 2026-05-04 17:44 | 18.09751 | 88.02874 | 40891 ft | 498 kts | 137° |
| 2026-05-04 17:45 | 18.04813 | 88.07982 | 40889 ft | 497 kts | 137° |
| 2026-05-04 17:45 | 17.99879 | 88.13082 | 40888 ft | 497 kts | 137° |
| 2026-05-04 17:46 | 17.94944 | 88.18177 | 40888 ft | 497 kts | 137° |
| 2026-05-04 17:46 | 17.90012 | 88.23267 | 40890 ft | 497 kts | 137° |
| 2026-05-04 17:47 | 17.85074 | 88.28358 | 40895 ft | 497 kts | 137° |
| 2026-05-04 17:47 | 17.80135 | 88.33446 | 40891 ft | 497 kts | 137° |
| 2026-05-04 17:48 | 17.75194 | 88.38532 | 40896 ft | 497 kts | 137° |
| 2026-05-04 17:48 | 17.70252 | 88.43615 | 40892 ft | 498 kts | 137° |
| 2026-05-04 17:49 | 17.65304 | 88.48700 | 40894 ft | 498 kts | 137° |
| 2026-05-04 17:49 | 17.60353 | 88.53784 | 40892 ft | 498 kts | 137° |
| 2026-05-04 17:50 | 17.55401 | 88.58864 | 40895 ft | 498 kts | 137° |
| 2026-05-04 17:50 | 17.50445 | 88.63945 | 40896 ft | 498 kts | 137° |
| 2026-05-04 17:51 | 17.45486 | 88.69025 | 40893 ft | 498 kts | 137° |
| 2026-05-04 17:51 | 17.40529 | 88.74099 | 40897 ft | 498 kts | 137° |
| 2026-05-04 17:52 | 17.35607 | 88.79133 | 40895 ft | 498 kts | 137° |
| 2026-05-04 17:52 | 17.30646 | 88.84203 | 40900 ft | 498 kts | 137° |
| 2026-05-04 17:53 | 17.25690 | 88.89263 | 40899 ft | 497 kts | 137° |
| 2026-05-04 17:53 | 17.20741 | 88.94313 | 40900 ft | 497 kts | 137° |
| 2026-05-04 17:54 | 17.15807 | 88.99383 | 40897 ft | 497 kts | 137° |
| 2026-05-04 17:54 | 17.10903 | 89.04483 | 40897 ft | 497 kts | 136° |
| 2026-05-04 17:55 | 17.05997 | 89.09583 | 40898 ft | 497 kts | 136° |
| 2026-05-04 17:55 | 17.01087 | 89.14674 | 40900 ft | 497 kts | 136° |
| 2026-05-04 17:56 | 16.96170 | 89.19763 | 40897 ft | 497 kts | 136° |
| 2026-05-04 17:56 | 16.92052 | 89.24023 | 40896 ft | 497 kts | 136° |
| 2026-05-04 17:57 | 16.87162 | 89.29076 | 40896 ft | 497 kts | 136° |
| 2026-05-04 17:57 | 16.82251 | 89.34147 | 40898 ft | 496 kts | 136° |
| 2026-05-04 17:58 | 16.77336 | 89.39220 | 40896 ft | 497 kts | 136° |
| 2026-05-04 17:58 | 16.72421 | 89.44288 | 40896 ft | 497 kts | 136° |
| 2026-05-04 17:59 | 16.67510 | 89.49348 | 40895 ft | 496 kts | 136° |
| 2026-05-04 18:00 | 16.60146 | 89.56929 | 40897 ft | 495 kts | 136° |
| 2026-05-04 18:00 | 16.55239 | 89.61975 | 40903 ft | 495 kts | 136° |
| 2026-05-04 18:01 | 16.50335 | 89.67014 | 40901 ft | 495 kts | 136° |
| 2026-05-04 18:01 | 16.45428 | 89.72054 | 40897 ft | 495 kts | 136° |
| 2026-05-04 18:02 | 16.38067 | 89.79605 | 40898 ft | 495 kts | 136° |
| 2026-05-04 18:02 | 16.33153 | 89.84641 | 40898 ft | 495 kts | 136° |
| 2026-05-04 18:03 | 16.28243 | 89.89670 | 40897 ft | 495 kts | 136° |
| 2026-05-04 18:03 | 16.23325 | 89.94703 | 40896 ft | 495 kts | 136° |
| 2026-05-04 18:04 | 16.18411 | 89.99729 | 40898 ft | 495 kts | 136° |
| 2026-05-04 18:05 | 16.11060 | 90.07240 | 40895 ft | 495 kts | 136° |
| 2026-05-04 18:05 | 16.06144 | 90.12257 | 40894 ft | 495 kts | 136° |
| 2026-05-04 18:06 | 15.98786 | 90.19797 | 40894 ft | 495 kts | 136° |
| 2026-05-04 18:06 | 15.93945 | 90.24883 | 40897 ft | 495 kts | 135° |
| 2026-05-04 18:07 | 15.89109 | 90.29977 | 40896 ft | 495 kts | 136° |
| 2026-05-04 18:07 | 15.84265 | 90.35059 | 40899 ft | 495 kts | 136° |
| 2026-05-04 18:08 | 15.79415 | 90.40134 | 40899 ft | 494 kts | 136° |
| 2026-05-04 18:08 | 15.74564 | 90.45203 | 40900 ft | 494 kts | 136° |
| 2026-05-04 18:09 | 15.64877 | 90.55317 | 40899 ft | 494 kts | 136° |
| 2026-05-04 18:10 | 15.60031 | 90.60372 | 40895 ft | 494 kts | 136° |
| 2026-05-04 18:10 | 15.55185 | 90.65422 | 40897 ft | 494 kts | 136° |
| 2026-05-04 18:11 | 15.50335 | 90.70474 | 40910 ft | 494 kts | 136° |
| 2026-05-04 18:11 | 15.45489 | 90.75518 | 40898 ft | 494 kts | 136° |
| 2026-05-04 18:12 | 15.40674 | 90.80526 | 40893 ft | 494 kts | 136° |
| 2026-05-04 18:12 | 15.35823 | 90.85569 | 40905 ft | 494 kts | 136° |
| 2026-05-04 18:13 | 15.30974 | 90.90605 | 40900 ft | 494 kts | 136° |
| 2026-05-04 18:14 | 15.23695 | 90.98159 | 40893 ft | 494 kts | 136° |
| 2026-05-04 18:14 | 15.18839 | 91.03193 | 40893 ft | 494 kts | 136° |
| 2026-05-04 18:15 | 15.09131 | 91.13249 | 40898 ft | 494 kts | 136° |
| 2026-05-04 18:16 | 15.04276 | 91.18273 | 40893 ft | 494 kts | 136° |
| 2026-05-04 18:16 | 14.99415 | 91.23299 | 40910 ft | 494 kts | 136° |
| 2026-05-04 18:17 | 14.92123 | 91.30832 | 40895 ft | 494 kts | 136° |
| 2026-05-04 18:18 | 14.84809 | 91.38381 | 40904 ft | 495 kts | 136° |
| 2026-05-04 18:18 | 14.79931 | 91.43412 | 40891 ft | 496 kts | 136° |
| 2026-05-04 18:19 | 14.72634 | 91.50930 | 40892 ft | 496 kts | 136° |
| 2026-05-04 18:19 | 14.67748 | 91.55961 | 40895 ft | 496 kts | 136° |
| 2026-05-04 18:20 | 14.62860 | 91.60990 | 40902 ft | 496 kts | 137° |
| 2026-05-04 18:20 | 14.57969 | 91.66018 | 40887 ft | 496 kts | 137° |
| 2026-05-04 18:21 | 14.53077 | 91.71044 | 40889 ft | 496 kts | 137° |
| 2026-05-04 18:21 | 14.48187 | 91.76065 | 40903 ft | 496 kts | 137° |
| 2026-05-04 18:22 | 14.43294 | 91.81086 | 40908 ft | 496 kts | 137° |
| 2026-05-04 18:22 | 14.38403 | 91.86101 | 40889 ft | 496 kts | 137° |
| 2026-05-04 18:23 | 14.33505 | 91.91121 | 40887 ft | 496 kts | 137° |
| 2026-05-04 18:23 | 14.28612 | 91.96131 | 40888 ft | 496 kts | 137° |
| 2026-05-04 18:24 | 14.23721 | 92.01145 | 40898 ft | 496 kts | 136° |
| 2026-05-04 18:24 | 14.18921 | 92.06188 | 40898 ft | 496 kts | 135° |
| 2026-05-04 18:25 | 14.14113 | 92.11288 | 40897 ft | 495 kts | 135° |
| 2026-05-04 18:25 | 14.09295 | 92.16379 | 40898 ft | 495 kts | 135° |
| 2026-05-04 18:26 | 14.04478 | 92.21452 | 40897 ft | 495 kts | 135° |
| 2026-05-04 18:26 | 13.99649 | 92.26529 | 40897 ft | 495 kts | 135° |
| 2026-05-04 18:27 | 13.94827 | 92.31597 | 40894 ft | 496 kts | 135° |
| 2026-05-04 18:27 | 13.89969 | 92.36637 | 40898 ft | 496 kts | 137° |
| 2026-05-04 18:28 | 13.85016 | 92.41567 | 40898 ft | 496 kts | 137° |
| 2026-05-04 18:28 | 13.80051 | 92.46489 | 40898 ft | 495 kts | 137° |
| 2026-05-04 18:29 | 13.75102 | 92.51426 | 40890 ft | 495 kts | 137° |
| 2026-05-04 18:29 | 13.70163 | 92.56366 | 40894 ft | 495 kts | 137° |
| 2026-05-04 18:30 | 13.62754 | 92.63777 | 40895 ft | 495 kts | 137° |
| 2026-05-04 18:31 | 13.57848 | 92.68680 | 40897 ft | 495 kts | 137° |
| 2026-05-04 18:31 | 13.52912 | 92.73614 | 40896 ft | 495 kts | 137° |
| 2026-05-04 18:32 | 13.47969 | 92.78560 | 40890 ft | 496 kts | 137° |
| 2026-05-04 18:32 | 13.43017 | 92.83487 | 40893 ft | 496 kts | 137° |
| 2026-05-04 18:33 | 13.38059 | 92.88421 | 40895 ft | 496 kts | 137° |
| 2026-05-04 18:33 | 13.33105 | 92.93354 | 40895 ft | 496 kts | 137° |
| 2026-05-04 18:34 | 13.28152 | 92.98284 | 40890 ft | 496 kts | 137° |
| 2026-05-04 18:34 | 13.23192 | 93.03218 | 40876 ft | 496 kts | 137° |
| 2026-05-04 18:35 | 13.18237 | 93.08145 | 40887 ft | 496 kts | 137° |
| 2026-05-04 18:35 | 13.13279 | 93.13071 | 40887 ft | 496 kts | 137° |
| 2026-05-04 18:36 | 13.08392 | 93.17926 | 40892 ft | 482 kts | 137° |
| 2026-05-04 18:36 | 13.03630 | 93.22654 | 40895 ft | 474 kts | 137° |
| 2026-05-04 18:37 | 12.98860 | 93.27384 | 40890 ft | 474 kts | 137° |
| 2026-05-04 18:37 | 12.94121 | 93.32082 | 40887 ft | 474 kts | 137° |
| 2026-05-04 18:38 | 12.89381 | 93.36778 | 40888 ft | 474 kts | 137° |
| 2026-05-04 18:38 | 12.85441 | 93.40680 | 40888 ft | 474 kts | 137° |
| 2026-05-04 18:39 | 12.79962 | 93.46103 | 40888 ft | 467 kts | 137° |
| 2026-05-04 18:39 | 12.76053 | 93.49971 | 40890 ft | 465 kts | 137° |
| 2026-05-04 18:40 | 12.71401 | 93.54570 | 40889 ft | 465 kts | 137° |
| 2026-05-04 18:40 | 12.66742 | 93.59174 | 40887 ft | 465 kts | 137° |
| 2026-05-04 18:41 | 12.62050 | 93.63734 | 40885 ft | 464 kts | 139° |
| 2026-05-04 18:41 | 12.57033 | 93.67882 | 40889 ft | 464 kts | 144° |
| 2026-05-04 18:42 | 12.51870 | 93.71841 | 40881 ft | 464 kts | 144° |
| 2026-05-04 18:42 | 12.46724 | 93.75773 | 40885 ft | 464 kts | 144° |
| 2026-05-04 18:43 | 12.41553 | 93.79722 | 40883 ft | 464 kts | 144° |
| 2026-05-04 18:43 | 12.36377 | 93.83667 | 40883 ft | 464 kts | 144° |
| 2026-05-04 18:44 | 12.31194 | 93.87601 | 40885 ft | 464 kts | 144° |
| 2026-05-04 18:44 | 12.26003 | 93.91538 | 40879 ft | 464 kts | 144° |
| 2026-05-04 18:45 | 12.20818 | 93.95470 | 40877 ft | 464 kts | 144° |
| 2026-05-04 18:45 | 12.15630 | 93.99402 | 40882 ft | 464 kts | 144° |
| 2026-05-04 18:46 | 12.10471 | 94.03312 | 40883 ft | 464 kts | 144° |
| 2026-05-04 18:46 | 12.05592 | 94.07630 | 40884 ft | 464 kts | 135° |
| 2026-05-04 18:47 | 12.01108 | 94.12384 | 40879 ft | 465 kts | 134° |
| 2026-05-04 18:47 | 11.96635 | 94.17148 | 40883 ft | 464 kts | 134° |
| 2026-05-04 18:48 | 11.92155 | 94.21905 | 40878 ft | 464 kts | 134° |
| 2026-05-04 18:48 | 11.87666 | 94.26659 | 40886 ft | 465 kts | 134° |
| 2026-05-04 18:49 | 11.83189 | 94.31410 | 40877 ft | 464 kts | 133° |
| 2026-05-04 18:49 | 11.78988 | 94.36420 | 40881 ft | 464 kts | 129° |
| 2026-05-04 18:50 | 11.74925 | 94.41516 | 40869 ft | 465 kts | 129° |
| 2026-05-04 18:50 | 11.70848 | 94.46640 | 40882 ft | 464 kts | 129° |
| 2026-05-04 18:51 | 11.66778 | 94.51755 | 40882 ft | 465 kts | 129° |
| 2026-05-04 18:51 | 11.62697 | 94.56882 | 40880 ft | 465 kts | 129° |
| 2026-05-04 18:52 | 11.58619 | 94.61998 | 40881 ft | 464 kts | 129° |
| 2026-05-04 18:52 | 11.54536 | 94.67119 | 40879 ft | 464 kts | 129° |
| 2026-05-04 18:53 | 11.50459 | 94.72231 | 40880 ft | 464 kts | 129° |
| 2026-05-04 18:53 | 11.46400 | 94.77318 | 40876 ft | 465 kts | 129° |
| 2026-05-04 18:54 | 11.42322 | 94.82425 | 40880 ft | 465 kts | 129° |
| 2026-05-04 18:54 | 11.38242 | 94.87534 | 40877 ft | 465 kts | 129° |
| 2026-05-04 18:55 | 11.34164 | 94.92642 | 40879 ft | 465 kts | 129° |
| 2026-05-04 18:55 | 11.28042 | 95.00308 | 40875 ft | 464 kts | 129° |
| 2026-05-04 18:56 | 11.23959 | 95.05397 | 40876 ft | 462 kts | 129° |
| 2026-05-04 18:56 | 11.19770 | 95.10355 | 40883 ft | 462 kts | 135° |
| 2026-05-04 18:57 | 11.15231 | 95.14965 | 40881 ft | 462 kts | 134° |
| 2026-05-04 18:57 | 11.10731 | 95.19653 | 40880 ft | 462 kts | 134° |
| 2026-05-04 18:58 | 11.06268 | 95.24306 | 40878 ft | 462 kts | 134° |
| 2026-05-04 18:58 | 11.01751 | 95.29015 | 40880 ft | 462 kts | 134° |
| 2026-05-04 18:59 | 10.97292 | 95.33663 | 40864 ft | 462 kts | 134° |
| 2026-05-04 18:59 | 10.92798 | 95.38350 | 40864 ft | 462 kts | 134° |
| 2026-05-04 19:00 | 10.88184 | 95.43157 | 40885 ft | 463 kts | 134° |
| 2026-05-04 19:01 | 10.83649 | 95.47796 | 40866 ft | 460 kts | 134° |
| 2026-05-04 19:01 | 10.79140 | 95.52405 | 40887 ft | 459 kts | 134° |
| 2026-05-04 19:02 | 10.74639 | 95.57006 | 40873 ft | 459 kts | 134° |
| 2026-05-04 19:02 | 10.70123 | 95.61604 | 40870 ft | 459 kts | 134° |
| 2026-05-04 19:03 | 10.65615 | 95.66209 | 40884 ft | 459 kts | 134° |
| 2026-05-04 19:03 | 10.61110 | 95.70810 | 40870 ft | 459 kts | 134° |
| 2026-05-04 19:04 | 10.56601 | 95.75399 | 40885 ft | 459 kts | 134° |
| 2026-05-04 19:04 | 10.51755 | 95.79554 | 40896 ft | 458 kts | 154° |
| 2026-05-04 19:05 | 10.48754 | 95.80590 | 40871 ft | 457 kts | 170° |
| 2026-05-04 19:05 | 10.45592 | 95.80923 | 40867 ft | 457 kts | 174° |
| 2026-05-04 19:05 | 10.42490 | 95.81563 | 40891 ft | 456 kts | 159° |
| 2026-05-04 19:05 | 10.39690 | 95.83045 | 40888 ft | 453 kts | 142° |
| 2026-05-04 19:06 | 10.35057 | 95.87370 | 40862 ft | 454 kts | 129° |
| 2026-05-04 19:06 | 10.33314 | 95.90027 | 40882 ft | 452 kts | 114° |
| 2026-05-04 19:06 | 10.32067 | 95.92950 | 40881 ft | 451 kts | 110° |
| 2026-05-04 19:07 | 10.29416 | 95.98727 | 40883 ft | 453 kts | 122° |
| 2026-05-04 19:07 | 10.25344 | 96.03615 | 40882 ft | 455 kts | 133° |
| 2026-05-04 19:08 | 10.20885 | 96.08160 | 40867 ft | 455 kts | 134° |
| 2026-05-04 19:08 | 10.16401 | 96.12710 | 40880 ft | 457 kts | 134° |
| 2026-05-04 19:09 | 10.11907 | 96.17272 | 40818 ft | 457 kts | 134° |
| 2026-05-04 19:09 | 10.09641 | 96.19573 | 40576 ft | 465 kts | 134° |
| 2026-05-04 19:09 | 10.07362 | 96.21887 | 40329 ft | 474 kts | 134° |
| 2026-05-04 19:10 | 10.04981 | 96.24303 | 40125 ft | 482 kts | 134° |
| 2026-05-04 19:10 | 10.02591 | 96.26727 | 39939 ft | 488 kts | 134° |
| 2026-05-04 19:10 | 10.00184 | 96.29168 | 39722 ft | 490 kts | 134° |
| 2026-05-04 19:10 | 9.97777 | 96.31608 | 39488 ft | 490 kts | 134° |
| 2026-05-04 19:11 | 9.95361 | 96.34057 | 39264 ft | 490 kts | 134° |
| 2026-05-04 19:11 | 9.92945 | 96.36506 | 39028 ft | 491 kts | 134° |
| 2026-05-04 19:11 | 9.90531 | 96.38953 | 38806 ft | 492 kts | 134° |
| 2026-05-04 19:11 | 9.88139 | 96.41376 | 38574 ft | 492 kts | 134° |
| 2026-05-04 19:12 | 9.85682 | 96.43864 | 38309 ft | 493 kts | 134° |
| 2026-05-04 19:12 | 9.80845 | 96.48762 | 37786 ft | 496 kts | 134° |
| 2026-05-04 19:12 | 9.78404 | 96.51233 | 37526 ft | 497 kts | 134° |
| 2026-05-04 19:13 | 9.75953 | 96.53713 | 37396 ft | 498 kts | 134° |
| 2026-05-04 19:13 | 9.73501 | 96.56195 | 37134 ft | 497 kts | 134° |
| 2026-05-04 19:13 | 9.71064 | 96.58660 | 36513 ft | 495 kts | 135° |
| 2026-05-04 19:13 | 9.68627 | 96.61124 | 35778 ft | 496 kts | 135° |
| 2026-05-04 19:14 | 9.66176 | 96.63603 | 35022 ft | 498 kts | 135° |
| 2026-05-04 19:14 | 9.63723 | 96.66082 | 34367 ft | 500 kts | 135° |
| 2026-05-04 19:14 | 9.61244 | 96.68588 | 34006 ft | 506 kts | 135° |
| 2026-05-04 19:14 | 9.58741 | 96.71118 | 33893 ft | 510 kts | 135° |
| 2026-05-04 19:15 | 9.56227 | 96.73657 | 33877 ft | 511 kts | 135° |
| 2026-05-04 19:15 | 9.53712 | 96.76197 | 33721 ft | 510 kts | 135° |
| 2026-05-04 19:15 | 9.51197 | 96.78737 | 33457 ft | 510 kts | 135° |
| 2026-05-04 19:15 | 9.48680 | 96.81278 | 33198 ft | 511 kts | 135° |
| 2026-05-04 19:16 | 9.46157 | 96.83824 | 32949 ft | 511 kts | 135° |
| 2026-05-04 19:16 | 9.43642 | 96.86361 | 32705 ft | 510 kts | 134° |
| 2026-05-04 19:16 | 9.41130 | 96.88896 | 32448 ft | 509 kts | 134° |
| 2026-05-04 19:16 | 9.38624 | 96.91424 | 32041 ft | 506 kts | 134° |
| 2026-05-04 19:17 | 9.36141 | 96.93927 | 31896 ft | 502 kts | 134° |
| 2026-05-04 19:17 | 9.31198 | 96.98911 | 31871 ft | 501 kts | 134° |
| 2026-05-04 19:18 | 9.26263 | 97.03885 | 31817 ft | 499 kts | 134° |
| 2026-05-04 19:18 | 9.23826 | 97.06339 | 31068 ft | 488 kts | 134° |
| 2026-05-04 19:18 | 9.21433 | 97.08749 | 30081 ft | 482 kts | 134° |
| 2026-05-04 19:18 | 9.19053 | 97.11146 | 29035 ft | 484 kts | 134° |
| 2026-05-04 19:19 | 9.16674 | 97.13543 | 28353 ft | 475 kts | 134° |
| 2026-05-04 19:19 | 9.14357 | 97.15874 | 27747 ft | 469 kts | 134° |
| 2026-05-04 19:19 | 9.12041 | 97.18206 | 27132 ft | 469 kts | 134° |
| 2026-05-04 19:19 | 9.10507 | 97.19750 | 26716 ft | 467 kts | 134° |
| 2026-05-04 19:20 | 9.07488 | 97.22787 | 25916 ft | 458 kts | 134° |
| 2026-05-04 19:20 | 9.05236 | 97.25053 | 25294 ft | 456 kts | 134° |
| 2026-05-04 19:20 | 9.02985 | 97.27316 | 24683 ft | 455 kts | 134° |
| 2026-05-04 19:20 | 9.00746 | 97.29568 | 24083 ft | 453 kts | 134° |
| 2026-05-04 19:21 | 8.98514 | 97.31812 | 23485 ft | 452 kts | 134° |
| 2026-05-04 19:21 | 8.97007 | 97.33326 | 22997 ft | 451 kts | 134° |
| 2026-05-04 19:21 | 8.94792 | 97.35552 | 22365 ft | 448 kts | 134° |
| 2026-05-04 19:21 | 8.92594 | 97.37761 | 21747 ft | 444 kts | 134° |
| 2026-05-04 19:22 | 8.90413 | 97.39951 | 21133 ft | 436 kts | 134° |
| 2026-05-04 19:22 | 8.88311 | 97.42061 | 20551 ft | 417 kts | 134° |
| 2026-05-04 19:22 | 8.86280 | 97.44100 | 19988 ft | 410 kts | 134° |
| 2026-05-04 19:22 | 8.84280 | 97.46110 | 19406 ft | 411 kts | 134° |
| 2026-05-04 19:23 | 8.82257 | 97.48141 | 18808 ft | 409 kts | 134° |
| 2026-05-04 19:23 | 8.80223 | 97.50183 | 18205 ft | 405 kts | 134° |
| 2026-05-04 19:23 | 8.78261 | 97.52153 | 17561 ft | 401 kts | 134° |
| 2026-05-04 19:23 | 8.76289 | 97.54132 | 16966 ft | 397 kts | 134° |
| 2026-05-04 19:24 | 8.74338 | 97.56089 | 16365 ft | 393 kts | 134° |
| 2026-05-04 19:24 | 8.72406 | 97.58027 | 15769 ft | 389 kts | 134° |
| 2026-05-04 19:24 | 8.70495 | 97.59943 | 15177 ft | 386 kts | 134° |
| 2026-05-04 19:24 | 8.68600 | 97.61844 | 14591 ft | 382 kts | 134° |
| 2026-05-04 19:25 | 8.66723 | 97.63727 | 14007 ft | 378 kts | 134° |
| 2026-05-04 19:25 | 8.64863 | 97.65591 | 13384 ft | 375 kts | 134° |
| 2026-05-04 19:25 | 8.63022 | 97.67437 | 12778 ft | 371 kts | 134° |
| 2026-05-04 19:25 | 8.61194 | 97.69269 | 12182 ft | 368 kts | 134° |
| 2026-05-04 19:26 | 8.59385 | 97.71083 | 11600 ft | 365 kts | 134° |
| 2026-05-04 19:26 | 8.57592 | 97.72879 | 11091 ft | 362 kts | 134° |
| 2026-05-04 19:26 | 8.55856 | 97.74617 | 10914 ft | 336 kts | 134° |
| 2026-05-04 19:26 | 8.54266 | 97.76206 | 10780 ft | 307 kts | 134° |
| 2026-05-04 19:27 | 8.52812 | 97.77661 | 10661 ft | 282 kts | 134° |
| 2026-05-04 19:27 | 8.51467 | 97.79008 | 10514 ft | 263 kts | 134° |
| 2026-05-04 19:27 | 8.50152 | 97.80327 | 10423 ft | 270 kts | 134° |
| 2026-05-04 19:27 | 8.48819 | 97.81665 | 10300 ft | 270 kts | 134° |
| 2026-05-04 19:28 | 8.47489 | 97.82999 | 10183 ft | 269 kts | 134° |
| 2026-05-04 19:28 | 8.46177 | 97.84313 | 10065 ft | 269 kts | 134° |
| 2026-05-04 19:28 | 8.44847 | 97.85644 | 9849 ft | 273 kts | 134° |
| 2026-05-04 19:28 | 8.43443 | 97.87051 | 9749 ft | 286 kts | 134° |
| 2026-05-04 19:29 | 8.42038 | 97.88457 | 9445 ft | 284 kts | 134° |
| 2026-05-04 19:29 | 8.40632 | 97.89864 | 8949 ft | 285 kts | 134° |
| 2026-05-04 19:29 | 8.39247 | 97.91249 | 8595 ft | 283 kts | 134° |
| 2026-05-04 19:29 | 8.37853 | 97.92643 | 8272 ft | 282 kts | 134° |
| 2026-05-04 19:30 | 8.36459 | 97.94037 | 8064 ft | 273 kts | 134° |
| 2026-05-04 19:30 | 8.35138 | 97.95356 | 7934 ft | 261 kts | 134° |
| 2026-05-04 19:30 | 8.33865 | 97.96630 | 7706 ft | 255 kts | 134° |
| 2026-05-04 19:30 | 8.32627 | 97.97868 | 7439 ft | 253 kts | 134° |
| 2026-05-04 19:31 | 8.31331 | 97.99061 | 7166 ft | 252 kts | 142° |
| 2026-05-04 19:31 | 8.29722 | 97.99757 | 6899 ft | 254 kts | 167° |
| 2026-05-04 19:31 | 8.27963 | 97.99996 | 6722 ft | 256 kts | 171° |
| 2026-05-04 19:31 | 8.26187 | 98.00167 | 6576 ft | 255 kts | 172° |
| 2026-05-04 19:32 | 8.24418 | 98.00337 | 6427 ft | 255 kts | 172° |
| 2026-05-04 19:32 | 8.22650 | 98.00513 | 6264 ft | 255 kts | 172° |
| 2026-05-04 19:32 | 8.20885 | 98.00692 | 6105 ft | 254 kts | 172° |
| 2026-05-04 19:32 | 8.19128 | 98.00873 | 5953 ft | 254 kts | 171° |
| 2026-05-04 19:33 | 8.17374 | 98.01055 | 5789 ft | 253 kts | 172° |
| 2026-05-04 19:33 | 8.15620 | 98.01223 | 5632 ft | 253 kts | 172° |
| 2026-05-04 19:33 | 8.13866 | 98.01385 | 5464 ft | 252 kts | 172° |
| 2026-05-04 19:33 | 8.12119 | 98.01549 | 5321 ft | 252 kts | 172° |
| 2026-05-04 19:34 | 8.10376 | 98.01739 | 5164 ft | 250 kts | 168° |
| 2026-05-04 19:34 | 8.08769 | 98.02355 | 5008 ft | 247 kts | 143° |
| 2026-05-04 19:34 | 8.07665 | 98.03632 | 4849 ft | 243 kts | 115° |
| 2026-05-04 19:34 | 8.07313 | 98.05257 | 4704 ft | 242 kts | 88° |
| 2026-05-04 19:35 | 8.07769 | 98.06874 | 4549 ft | 243 kts | 60° |
| 2026-05-04 19:35 | 8.08857 | 98.08180 | 4410 ft | 244 kts | 49° |
| 2026-05-04 19:35 | 8.09752 | 98.09616 | 4240 ft | 242 kts | 73° |
| 2026-05-04 19:35 | 8.09827 | 98.11282 | 4102 ft | 239 kts | 101° |
| 2026-05-04 19:36 | 8.09639 | 98.12948 | 4000 ft | 240 kts | 90° |
| 2026-05-04 19:36 | 8.09724 | 98.14634 | 3996 ft | 241 kts | 85° |
| 2026-05-04 19:36 | 8.09874 | 98.16311 | 3934 ft | 236 kts | 85° |
| 2026-05-04 19:36 | 8.10029 | 98.17920 | 3753 ft | 226 kts | 84° |
| 2026-05-04 19:37 | 8.10198 | 98.19505 | 3277 ft | 229 kts | 83° |
| 2026-05-04 19:37 | 8.10380 | 98.21085 | 2701 ft | 225 kts | 85° |
| 2026-05-04 19:37 | 8.10526 | 98.22658 | 2089 ft | 223 kts | 84° |
| 2026-05-04 19:37 | 8.10670 | 98.24211 | 1408 ft | 222 kts | 84° |
| 2026-05-04 19:38 | 8.10804 | 98.25751 | 824 ft | 218 kts | 85° |
| 2026-05-04 19:38 | 8.10917 | 98.27238 | 483 ft | 204 kts | 85° |
| 2026-05-04 19:38 | 8.11043 | 98.28596 | 297 ft | 185 kts | 85° |
| 2026-05-04 19:38 | 8.11148 | 98.29820 | 139 ft | 165 kts | 85° |
| 2026-05-04 19:39 | 8.11252 | 98.30904 | 39 ft | 149 kts | 85° |
| 2026-05-04 19:39 | 8.11336 | 98.31826 | 50 ft | 112 kts | 84° |
| 2026-05-04 19:39 | 8.11361 | 98.32291 | 67 ft | 34 kts | 110° |
| 2026-05-04 19:39 | 8.11333 | 98.32385 | 85 ft | 3 kts | 106° |
| 2026-05-04 19:40 | 8.11332 | 98.32387 | 85 ft | 0 kts | 108° |
| 2026-05-04 19:40 | 8.11329 | 98.32396 | 85 ft | 5 kts | 111° |
| 2026-05-04 19:40 | 8.11276 | 98.32425 | 87 ft | 10 kts | 194° |
| 2026-05-04 19:40 | 8.11250 | 98.32357 | 84 ft | 18 kts | 263° |
| 2026-05-04 19:41 | 8.11240 | 98.32267 | 77 ft | 2 kts | 264° |
| 2026-05-04 19:41 | 8.11234 | 98.32209 | 82 ft | 16 kts | 264° |
| 2026-05-04 19:41 | 8.11230 | 98.32162 | 72 ft | 9 kts | 265° |
| 2026-05-04 19:41 | 8.11222 | 98.32070 | 68 ft | 13 kts | 264° |
| 2026-05-04 19:42 | 8.11208 | 98.31922 | 59 ft | 28 kts | 264° |
| 2026-05-04 19:42 | 8.11191 | 98.31747 | 52 ft | 21 kts | 265° |
| 2026-05-04 19:42 | 8.11183 | 98.31654 | 48 ft | 14 kts | 265° |
| 2026-05-04 19:42 | 8.11172 | 98.31534 | 44 ft | 20 kts | 264° |
| 2026-05-04 19:43 | 8.11160 | 98.31416 | 41 ft | 0 kts | 265° |
| 2026-05-04 19:43 | 8.11159 | 98.31404 | 41 ft | 4 kts | 265° |
| 2026-05-04 19:43 | 8.11155 | 98.31351 | -15 ft | 10 kts | 265° |
| 2026-05-04 19:43 | 8.11146 | 98.31261 | 38 ft | 14 kts | 264° |
| 2026-05-04 19:44 | 8.11135 | 98.31148 | 36 ft | 16 kts | 264° |
| 2026-05-04 19:44 | 8.11123 | 98.31025 | 36 ft | 19 kts | 263° |
| 2026-05-04 19:44 | 8.11084 | 98.30893 | 35 ft | 21 kts | 262° |
| 2026-05-04 19:44 | 8.11069 | 98.30743 | 35 ft | 21 kts | 264° |
| 2026-05-04 19:45 | 8.11059 | 98.30629 | 34 ft | 15 kts | 265° |
| 2026-05-04 19:45 | 8.11046 | 98.30522 | 34 ft | 15 kts | 251° |
| 2026-05-04 19:45 | 8.10961 | 98.30472 | 33 ft | 15 kts | 195° |
| 2026-05-04 19:45 | 8.10862 | 98.30445 | 33 ft | 15 kts | 195° |
| 2026-05-04 19:46 | 8.10809 | 98.30445 | 33 ft | 3 kts | 136° |
| 2026-05-04 19:46 | 8.10793 | 98.30470 | 33 ft | 6 kts | 118° |
| 2026-05-04 19:46 | 8.10783 | 98.30502 | 33 ft | 0 kts | 105° |
| 2026-05-04 19:46 | 8.10782 | 98.30505 | 33 ft | 0 kts | 106° |
| 2026-05-04 19:47 | 8.10781 | 98.30508 | 33 ft | 0 kts | 105° |